KCVS/CVS METAR and TAF weather

Enter ICAO airport designator
Station Type Date Time Source
KCVS METAR 2018/04/21 20:58 UTC NOAA

KCVS 212058Z AUTO 02010KT 10SM FEW037 14/06 A3009 RMK AO2 SLP165 T01360055 58001 $


Station Type Date Time Source
KCVS Decoded METAR 2018/04/21 20:58 UTC NOAA

Cannon Air Force Base / Clovis, NM, United States (KCVS) 34-23N 103-19W
Apr 21, 2018 - 04:58 PM EDT / 2018.04.21 2058 UTC
Wind: from the NNE (020 degrees) at 12 MPH (10 KT):0
Visibility: 10 mile(s):0
Sky conditions: mostly clear
Temperature: 56.5 F (13.6 C)
Dew Point: 41.9 F (5.5 C)
Relative Humidity: 57%
Pressure (altimeter): 30.09 in. Hg (1018 hPa)
Pressure tendency: 0.00 inches (0.1 hPa) lower than three hours ago
ob: KCVS 212058Z AUTO 02010KT 10SM FEW037 14/06 A3009 RMK AO2 SLP165 T01360055 58001
cycle: 21

Station Type Date Time Source
KCVS TAF 2018/04/21 23:59 UTC NOAA

TAF
AMD KCVS 210053Z 2023/2124 19012KT 9999 SCT080 SCT150 510006 QNH2980INS
BECMG 2105/2106 31012KT 9999 SCT150 QNH2990INS
TEMPO 2111/2114 9000 BR BKN012
BECMG 2115/2116 03012G20KT 9999 FEW150 QNH2997INS TX15/2023Z TN06/2111Z


Example: see airport list